Williston, North Dakota
Current Conditions -  °F | °C
As of 1:52 AM on Thursday 29 Jan 2015 (Local Time) from KISN Reporting Station
Overcast Overcast  
Wind Chill: 20°   Ceiling: 1900
Heat Index: 29°   Visibility: 10mi
Dew Point: 22°   Wind: 9mph
Humidity: 75%   Direction: 330°NNW
Pressure: 30.37"   Gusts: 21mph
Location:  48.15°N, 103.62°W
Report Text: KISN 290752Z AUTO 33008G18KT 10SM OVC019 M02/M06 A3037 RMK AO2 SLP312 T10171056
Loading
Personal Weather Stations






























Interactive Weather Map New forecast layout! Learn more

10-Day Weather Forecast

Advertisements
Track Severe Weather on mobile